Time;durP1;ratioP1;P1;durP2;ratioP2;P2;SDS_P1;SDS_P2;PMS_P1;PMS_P2;Temp;Humidity;BMP_temperature;BMP_pressure;BME280_temperature;BME280_humidity;BME280_pressure;Samples;Min_cycle;Max_cycle;Signal;HPM_P1;HPM_P2
2023/12/02 00:00:35;;;;;;;15.13;7.17;;;;;;;-2.10;88.27;100993.75;5012699;28;20451;-86
2023/12/02 00:03:00;;;;;;;15.67;6.80;;;;;;;-2.13;87.92;100999.63;4993826;28;20113;-87
2023/12/02 00:05:25;;;;;;;14.80;6.57;;;;;;;-2.15;88.16;101001.28;4994649;28;20049;-85
2023/12/02 00:07:51;;;;;;;13.93;6.23;;;;;;;-2.16;88.31;101009.75;4994597;28;20469;-87
2023/12/02 00:10:16;;;;;;;13.87;6.00;;;;;;;-2.18;88.65;100998.66;5011984;28;20593;-86
2023/12/02 00:12:42;;;;;;;15.90;7.23;;;;;;;-2.18;87.89;100995.22;5010237;28;20026;-86
2023/12/02 00:15:08;;;;;;;13.67;6.23;;;;;;;-2.19;88.06;100996.03;5012697;28;20096;-87
2023/12/02 00:17:33;;;;;;;13.87;6.37;;;;;;;-2.19;88.33;100999.47;5012336;28;20042;-87
2023/12/02 00:19:59;;;;;;;15.03;6.73;;;;;;;-2.17;88.29;100995.28;5012059;28;20101;-86
2023/12/02 00:22:24;;;;;;;15.97;6.97;;;;;;;-2.16;88.42;100999.56;5010743;28;20064;-87
2023/12/02 00:24:49;;;;;;;17.13;7.30;;;;;;;-2.17;88.47;100990.19;5011800;28;20040;-86
2023/12/02 00:27:16;;;;;;;15.10;6.97;;;;;;;-2.20;88.86;100987.53;5010187;28;20030;-85
2023/12/02 00:29:42;;;;;;;16.37;7.50;;;;;;;-2.24;88.68;100995.06;5010851;28;20025;-86
2023/12/02 00:32:08;;;;;;;17.63;7.03;;;;;;;-2.26;88.95;100991.59;5011699;28;20064;-86
2023/12/02 00:34:33;;;;;;;15.13;7.33;;;;;;;-2.29;88.67;100995.78;5011941;28;20417;-88
2023/12/02 00:36:58;;;;;;;18.17;7.87;;;;;;;-2.34;88.49;100989.66;5011303;28;20041;-86
2023/12/02 00:39:23;;;;;;;16.43;7.20;;;;;;;-2.35;88.66;100993.03;5011282;28;20477;-87
2023/12/02 00:41:49;;;;;;;15.63;6.87;;;;;;;-2.35;88.63;100998.13;5011526;28;20061;-87
2023/12/02 00:44:15;;;;;;;16.13;7.47;;;;;;;-2.35;88.50;100998.13;5009478;28;20060;-87
2023/12/02 00:46:40;;;;;;;15.80;6.87;;;;;;;-2.36;88.34;100993.00;4993521;28;20060;-86
2023/12/02 00:49:06;;;;;;;16.93;7.40;;;;;;;-2.39;88.17;101001.41;4995124;28;20473;-89
2023/12/02 00:51:31;;;;;;;16.57;7.27;;;;;;;-2.44;88.24;101002.97;4992757;28;20022;-86
2023/12/02 00:53:56;;;;;;;15.67;6.87;;;;;;;-2.44;88.77;101003.81;5011425;28;20524;-85
2023/12/02 00:56:22;;;;;;;15.50;6.70;;;;;;;-2.42;88.43;100998.78;5012671;28;21646;-87
2023/12/02 00:58:47;;;;;;;15.20;6.40;;;;;;;-2.39;88.30;100995.47;4994131;28;20121;-86
2023/12/02 01:01:12;;;;;;;17.03;6.70;;;;;;;-2.38;88.48;100997.19;4997659;28;20073;-85
2023/12/02 01:03:38;;;;;;;15.40;6.70;;;;;;;-2.33;88.88;100998.19;4993938;28;20033;-86
2023/12/02 01:06:03;;;;;;;15.67;6.47;;;;;;;-2.32;88.83;100990.59;5012789;28;20463;-87
2023/12/02 01:08:29;;;;;;;16.23;6.97;;;;;;;-2.29;88.67;100998.31;4994437;28;20030;-86
2023/12/02 01:10:55;;;;;;;15.83;7.13;;;;;;;-2.27;88.01;100979.66;5015300;28;20044;-85
2023/12/02 01:13:20;;;;;;;17.57;7.23;;;;;;;-2.25;88.18;100983.13;5010634;28;20026;-86
2023/12/02 01:15:45;;;;;;;16.43;7.10;;;;;;;-2.25;88.11;100983.13;5009807;28;20060;-85
2023/12/02 01:18:11;;;;;;;14.00;6.67;;;;;;;-2.26;88.78;100989.03;5010447;28;20084;-86
2023/12/02 01:20:37;;;;;;;18.43;8.23;;;;;;;-2.28;88.70;100983.88;4997068;28;20398;-86
2023/12/02 01:23:02;;;;;;;18.73;7.63;;;;;;;-2.36;88.24;100976.03;5014980;28;20030;-86
2023/12/02 01:25:28;;;;;;;17.77;7.90;;;;;;;-2.36;88.40;100978.56;5011547;28;20037;-87
2023/12/02 01:27:53;;;;;;;17.83;7.10;;;;;;;-2.35;88.74;100982.00;5013832;28;20424;-86
2023/12/02 01:30:18;;;;;;;16.07;6.63;;;;;;;-2.35;89.00;100985.41;5011973;28;20457;-86
2023/12/02 01:32:44;;;;;;;16.90;6.50;;;;;;;-2.33;88.35;100981.22;5012340;28;20431;-87
2023/12/02 01:35:09;;;;;;;17.13;7.07;;;;;;;-2.32;89.36;100993.13;5012176;28;20553;-86
2023/12/02 01:37:35;;;;;;;16.47;6.77;;;;;;;-2.36;89.18;100996.41;4997910;28;20412;-85
2023/12/02 01:40:00;;;;;;;18.33;7.30;;;;;;;-2.35;88.99;101000.69;5012444;28;20119;-85
2023/12/02 01:42:25;;;;;;;16.03;7.77;;;;;;;-2.39;88.78;101001.41;4993787;28;20026;-85
2023/12/02 01:44:51;;;;;;;17.23;7.17;;;;;;;-2.37;88.50;101004.88;4994947;28;20064;-86
2023/12/02 01:47:16;;;;;;;18.23;7.73;;;;;;;-2.42;89.25;101011.53;5010526;28;20030;-86
2023/12/02 01:49:44;;;;;;;17.13;7.70;;;;;;;-2.38;89.66;101004.84;5012308;28;20030;-86
2023/12/02 01:52:10;;;;;;;15.57;7.20;;;;;;;-2.37;88.61;101015.06;4992485;28;20100;-86
2023/12/02 01:54:36;;;;;;;19.00;7.37;;;;;;;-2.37;89.21;101015.06;5008999;28;20057;-86
2023/12/02 01:57:02;;;;;;;16.70;6.70;;;;;;;-2.36;88.52;101018.50;5009422;28;20057;-87
2023/12/02 01:59:28;;;;;;;14.67;6.30;;;;;;;-2.37;88.81;101020.16;5010871;28;20037;-84
2023/12/02 02:01:53;;;;;;;18.23;8.37;;;;;;;-2.35;88.88;101023.63;4993663;28;20038;-84
2023/12/02 02:04:19;;;;;;;14.67;6.63;;;;;;;-2.35;89.15;101023.63;5009687;28;20041;-84
2023/12/02 02:06:44;;;;;;;14.63;7.20;;;;;;;-2.33;89.69;101019.44;5011196;28;20109;-84
2023/12/02 02:09:10;;;;;;;17.07;7.60;;;;;;;-2.34;89.19;101025.34;5011122;28;20029;-84
2023/12/02 02:11:36;;;;;;;15.33;7.13;;;;;;;-2.34;89.19;101025.34;4992177;28;20114;-84
2023/12/02 02:14:02;;;;;;;17.00;7.60;;;;;;;-2.38;89.36;101026.06;5010344;28;20060;-84
2023/12/02 02:16:27;;;;;;;16.27;7.07;;;;;;;-2.42;88.43;101024.28;5010876;28;20057;-84
2023/12/02 02:18:52;;;;;;;13.80;6.23;;;;;;;-2.45;88.95;101024.16;5008697;28;20057;-84
2023/12/02 02:21:20;;;;;;;13.57;6.33;;;;;;;-2.48;88.68;101026.63;5011821;28;20025;-84
2023/12/02 02:23:45;;;;;;;16.23;6.93;;;;;;;-2.52;88.93;101019.69;5007270;28;20131;-84
2023/12/02 02:26:11;;;;;;;15.47;6.50;;;;;;;-2.57;89.04;101027.19;5010848;28;20497;-84
2023/12/02 02:28:36;;;;;;;15.87;6.70;;;;;;;-2.62;89.28;101024.50;4994345;28;20109;-84
2023/12/02 02:31:01;;;;;;;14.50;6.43;;;;;;;-2.64;88.28;101025.25;5010399;28;20446;-84
2023/12/02 02:33:27;;;;;;;13.63;6.20;;;;;;;-2.66;89.14;101019.28;4994418;28;20069;-84
2023/12/02 02:35:52;;;;;;;12.13;5.57;;;;;;;-2.67;89.04;101015.84;5010515;28;20112;-84
2023/12/02 02:38:18;;;;;;;13.30;5.77;;;;;;;-2.68;88.78;101024.31;5009648;28;20152;-84
2023/12/02 02:40:44;;;;;;;13.63;6.10;;;;;;;-2.71;88.90;101016.56;5010734;28;20052;-84
2023/12/02 02:43:09;;;;;;;13.77;5.93;;;;;;;-2.68;89.83;101023.47;5009773;28;20064;-83
2023/12/02 02:45:34;;;;;;;15.60;7.10;;;;;;;-2.68;89.10;101021.75;5008782;28;20047;-83
2023/12/02 02:48:00;;;;;;;15.73;6.60;;;;;;;-2.66;89.21;101024.38;5009851;28;20496;-84
2023/12/02 02:50:26;;;;;;;15.47;6.67;;;;;;;-2.64;88.95;101026.16;5009282;28;20466;-84
2023/12/02 02:52:51;;;;;;;15.03;6.03;;;;;;;-2.63;89.03;101032.97;5011909;28;20057;-84
2023/12/02 02:55:16;;;;;;;15.50;7.03;;;;;;;-2.63;89.60;101027.88;4992700;28;20564;-84
2023/12/02 02:57:42;;;;;;;15.13;6.67;;;;;;;-2.62;89.14;101028.72;5009137;28;20021;-84
2023/12/02 03:00:11;;;;;;;13.83;6.10;;;;;;;-2.60;89.24;101033.06;4990446;28;20029;-84
2023/12/02 03:02:37;;;;;;;18.67;7.60;;;;;;;-2.60;89.33;101042.38;5010387;28;20030;-84
2023/12/02 03:05:04;;;;;;;15.10;6.60;;;;;;;-2.62;89.35;101041.47;5009040;28;20022;-84
2023/12/02 03:07:29;;;;;;;14.73;6.77;;;;;;;-2.62;89.56;101044.00;5009238;28;20033;-84
2023/12/02 03:09:56;;;;;;;15.03;6.93;;;;;;;-2.60;89.66;101050.91;5012117;28;20408;-84
2023/12/02 03:12:22;;;;;;;17.53;7.23;;;;;;;-2.56;89.66;101048.47;4992842;28;20088;-84
2023/12/02 03:14:47;;;;;;;15.27;6.43;;;;;;;-2.57;89.11;101045.03;4993013;28;20025;-84
2023/12/02 03:17:13;;;;;;;16.20;7.13;;;;;;;-2.52;90.32;101050.25;5009862;28;20049;-84
2023/12/02 03:19:38;;;;;;;14.83;6.50;;;;;;;-2.51;88.97;101041.81;5009568;28;20436;-84
2023/12/02 03:22:04;;;;;;;13.60;6.03;;;;;;;-2.47;89.10;101048.72;5008712;28;20030;-83
2023/12/02 03:24:29;;;;;;;13.97;6.17;;;;;;;-2.46;89.57;101047.91;5012657;28;20034;-84
2023/12/02 03:26:55;;;;;;;14.23;6.20;;;;;;;-2.44;88.93;101049.69;5015870;28;20030;-84
2023/12/02 03:29:20;;;;;;;13.03;6.40;;;;;;;-2.42;88.95;101047.19;5017893;28;21522;-84
2023/12/02 03:31:45;;;;;;;11.70;5.37;;;;;;;-2.41;89.70;101046.38;4996775;28;20038;-84
2023/12/02 03:34:11;;;;;;;12.33;5.00;;;;;;;-2.39;88.87;101039.63;5000008;28;20083;-84
2023/12/02 03:36:36;;;;;;;13.63;6.10;;;;;;;-2.39;88.74;101048.97;5017229;28;20026;-84
2023/12/02 03:39:01;;;;;;;13.53;5.73;;;;;;;-2.39;89.28;101061.69;5015301;28;20565;-84
2023/12/02 03:41:27;;;;;;;12.53;5.47;;;;;;;-2.40;89.43;101071.03;5016706;28;20488;-83
2023/12/02 03:43:52;;;;;;;14.73;6.87;;;;;;;-2.41;89.65;101064.22;4999865;28;20041;-84
2023/12/02 03:46:17;;;;;;;14.83;6.50;;;;;;;-2.39;88.87;101052.34;5015501;28;20109;-84
2023/12/02 03:48:43;;;;;;;16.63;7.67;;;;;;;-2.38;89.49;101060.88;5016701;28;20488;-84
2023/12/02 03:51:08;;;;;;;15.43;7.03;;;;;;;-2.38;89.63;101059.19;4997646;28;20473;-84
2023/12/02 03:53:35;;;;;;;14.30;6.57;;;;;;;-2.39;89.27;101057.47;5014874;28;20045;-84
2023/12/02 03:56:01;;;;;;;14.90;6.53;;;;;;;-2.39;89.42;101060.00;5016229;28;20092;-84
2023/12/02 03:58:27;;;;;;;15.53;6.83;;;;;;;-2.39;89.62;101066.81;4996461;28;20022;-84
2023/12/02 04:00:55;;;;;;;14.30;6.37;;;;;;;-2.41;89.72;101069.31;4998655;28;20443;-84
2023/12/02 04:03:21;;;;;;;14.00;6.00;;;;;;;-2.43;88.80;101065.84;4997804;28;20025;-84
2023/12/02 04:05:46;;;;;;;13.73;6.10;;;;;;;-2.41;89.12;101064.22;5000774;28;20504;-84
2023/12/02 04:08:12;;;;;;;12.63;6.03;;;;;;;-2.38;89.53;101077.03;5017335;28;20536;-84
2023/12/02 04:10:37;;;;;;;14.77;6.73;;;;;;;-2.41;89.18;101069.31;4999213;28;20025;-84
2023/12/02 04:13:05;;;;;;;14.47;6.17;;;;;;;-2.40;89.68;101070.16;5017625;28;20030;-83
2023/12/02 04:15:30;;;;;;;14.60;7.10;;;;;;;-2.43;90.07;101078.59;5016875;28;20014;-83
2023/12/02 04:17:56;;;;;;;15.43;7.20;;;;;;;-2.42;89.97;101072.69;5016578;28;20468;-84
2023/12/02 04:20:21;;;;;;;14.80;6.37;;;;;;;-2.44;89.67;101071.75;5016077;28;20438;-84
2023/12/02 04:22:47;;;;;;;16.10;6.63;;;;;;;-2.44;90.31;101082.81;5014141;28;20053;-84
2023/12/02 04:25:13;;;;;;;15.17;7.20;;;;;;;-2.41;89.97;101079.50;5016817;28;20030;-84
2023/12/02 04:27:39;;;;;;;13.80;6.47;;;;;;;-2.38;89.72;101083.81;5003098;28;20022;-84
2023/12/02 04:30:05;;;;;;;14.77;6.80;;;;;;;-2.36;89.56;101084.75;5001114;28;20440;-84
2023/12/02 04:32:30;;;;;;;15.10;6.57;;;;;;;-2.36;89.59;101085.59;5013766;28;20045;-84
2023/12/02 04:34:55;;;;;;;14.47;6.07;;;;;;;-2.35;89.38;101089.88;5014267;28;20469;-84
2023/12/02 04:37:24;;;;;;;13.33;5.93;;;;;;;-2.30;89.57;101097.66;5014267;28;20083;-84
2023/12/02 04:39:50;;;;;;;12.97;6.30;;;;;;;-2.30;89.30;101106.16;5014010;28;20025;-83
2023/12/02 04:42:15;;;;;;;14.53;6.63;;;;;;;-2.29;89.34;101102.81;5013455;28;20084;-84
2023/12/02 04:44:40;;;;;;;15.00;6.63;;;;;;;-2.29;89.86;101101.94;5012837;28;20426;-84
2023/12/02 04:47:06;;;;;;;15.27;6.67;;;;;;;-2.30;89.27;101095.97;5014258;28;20543;-84
2023/12/02 04:49:31;;;;;;;16.70;7.10;;;;;;;-2.30;90.23;101098.53;5013330;28;20112;-84
2023/12/02 04:51:56;;;;;;;14.57;7.03;;;;;;;-2.30;89.43;101098.53;5014115;28;20080;-84
2023/12/02 04:54:22;;;;;;;16.63;7.10;;;;;;;-2.30;89.41;101088.34;5012952;28;20115;-84
2023/12/02 04:56:47;;;;;;;13.20;6.40;;;;;;;-2.29;89.48;101089.19;4999342;28;20474;-84
2023/12/02 04:59:12;;;;;;;15.33;6.80;;;;;;;-2.30;89.25;101093.44;4997117;28;20029;-84
2023/12/02 05:01:38;;;;;;;15.17;7.20;;;;;;;-2.30;89.13;101090.88;5014240;28;20055;-84
2023/12/02 05:04:03;;;;;;;14.93;6.73;;;;;;;-2.31;89.62;101094.25;5012589;28;20030;-84
2023/12/02 05:06:29;;;;;;;17.57;7.67;;;;;;;-2.29;89.46;101095.16;4996875;28;20028;-83
2023/12/02 05:08:54;;;;;;;15.57;7.07;;;;;;;-2.29;89.49;101115.56;5014523;28;20469;-84
2023/12/02 05:11:20;;;;;;;17.77;7.50;;;;;;;-2.31;89.35;101096.78;5015022;28;20033;-84
2023/12/02 05:13:47;;;;;;;14.23;6.70;;;;;;;-2.30;89.89;101103.63;4996223;28;20024;-84
2023/12/02 05:16:13;;;;;;;15.03;7.00;;;;;;;-2.29;89.56;101107.91;4999514;28;20116;-84
2023/12/02 05:18:42;;;;;;;15.07;7.10;;;;;;;-2.29;89.81;101107.91;5013975;28;20481;-84
2023/12/02 05:21:09;;;;;;;15.70;7.50;;;;;;;-2.25;89.82;101101.22;5011997;28;20049;-84
2023/12/02 05:23:34;;;;;;;15.73;6.93;;;;;;;-2.23;90.27;101114.03;4996408;28;20101;-84
2023/12/02 05:26:00;;;;;;;13.37;6.07;;;;;;;-2.21;89.53;101113.25;4996219;28;20549;-84
2023/12/02 05:28:25;;;;;;;14.03;6.80;;;;;;;-2.21;89.35;101117.47;5014555;28;20029;-84
2023/12/02 05:30:50;;;;;;;15.20;6.90;;;;;;;-2.22;90.22;101119.16;5012643;28;20037;-84
2023/12/02 05:33:17;;;;;;;13.63;6.53;;;;;;;-2.23;89.40;101134.41;5013843;28;20059;-84
2023/12/02 05:35:43;;;;;;;13.93;6.70;;;;;;;-2.26;89.53;101135.16;5011832;28;20041;-84
2023/12/02 05:38:08;;;;;;;14.87;6.77;;;;;;;-2.28;89.90;101136.78;5011797;28;20023;-84
2023/12/02 05:40:33;;;;;;;16.73;7.57;;;;;;;-2.28;89.19;101141.88;5012537;28;20022;-84
2023/12/02 05:42:58;;;;;;;14.53;6.90;;;;;;;-2.27;88.69;101137.66;5012713;28;20145;-84
2023/12/02 05:45:24;;;;;;;15.40;6.43;;;;;;;-2.29;89.41;101141.03;5012796;28;20026;-84
2023/12/02 05:47:49;;;;;;;14.80;6.83;;;;;;;-2.31;89.41;101141.81;5013241;28;20030;-84
2023/12/02 05:50:14;;;;;;;14.00;6.87;;;;;;;-2.35;89.13;101135.72;4998666;28;20049;-84
2023/12/02 05:52:40;;;;;;;14.47;6.70;;;;;;;-2.37;89.10;101142.47;5012880;28;20500;-84
2023/12/02 05:55:05;;;;;;;15.20;6.90;;;;;;;-2.44;88.50;101140.56;5012855;28;20482;-84
2023/12/02 05:57:31;;;;;;;16.17;7.47;;;;;;;-2.50;89.06;101140.34;5012918;28;20022;-84
2023/12/02 05:59:56;;;;;;;14.07;6.60;;;;;;;-2.52;89.49;101131.78;5012502;28;20124;-84
2023/12/02 06:02:21;;;;;;;16.30;7.53;;;;;;;-2.52;89.61;101137.75;5010773;28;20042;-84
2023/12/02 06:04:47;;;;;;;14.00;6.50;;;;;;;-2.51;89.17;101141.16;5014456;28;20021;-84
2023/12/02 06:07:12;;;;;;;14.97;6.47;;;;;;;-2.52;89.39;101144.50;5011772;28;20109;-84
2023/12/02 06:09:42;;;;;;;14.80;6.70;;;;;;;-2.53;89.48;101145.31;5012997;28;20037;-84
2023/12/02 06:12:07;;;;;;;15.73;7.03;;;;;;;-2.52;89.53;101141.97;5012824;28;20030;-85
2023/12/02 06:14:32;;;;;;;15.17;6.57;;;;;;;-2.53;89.94;101140.22;5011971;28;20025;-85
2023/12/02 06:16:58;;;;;;;13.67;6.10;;;;;;;-2.54;89.53;101144.47;5011219;28;20521;-85
2023/12/02 06:19:23;;;;;;;15.43;6.93;;;;;;;-2.51;89.53;101144.59;5013167;28;20457;-85
2023/12/02 06:21:48;;;;;;;15.07;6.90;;;;;;;-2.48;89.98;101143.81;5011489;28;20124;-85
2023/12/02 06:24:14;;;;;;;14.07;6.67;;;;;;;-2.47;89.90;101145.53;5012438;28;20029;-85
2023/12/02 06:26:39;;;;;;;14.60;6.47;;;;;;;-2.44;89.70;101148.19;5014178;28;20397;-85
2023/12/02 06:29:04;;;;;;;13.27;6.07;;;;;;;-2.44;90.51;101158.38;4995936;28;20540;-84
2023/12/02 06:31:30;;;;;;;14.80;6.60;;;;;;;-2.43;90.00;101165.22;5012112;28;20104;-85
2023/12/02 06:33:55;;;;;;;14.53;6.93;;;;;;;-2.41;89.54;101160.16;5010938;28;20106;-85
2023/12/02 06:36:21;;;;;;;12.80;6.40;;;;;;;-2.38;89.63;101171.31;5012220;28;20406;-85
2023/12/02 06:38:46;;;;;;;15.07;6.63;;;;;;;-2.36;89.51;101167.13;5009947;28;20034;-84
2023/12/02 06:41:11;;;;;;;15.63;6.27;;;;;;;-2.32;89.62;101163.00;4996494;28;20034;-84
2023/12/02 06:43:37;;;;;;;14.83;6.73;;;;;;;-2.31;89.47;101164.75;5010912;28;20466;-84
2023/12/02 06:46:02;;;;;;;14.90;7.40;;;;;;;-2.30;89.33;101169.00;5012841;28;20489;-84
2023/12/02 06:48:28;;;;;;;12.97;6.43;;;;;;;-2.31;89.61;101170.69;5012197;28;20117;-84
2023/12/02 06:50:53;;;;;;;18.13;7.23;;;;;;;-2.31;89.35;101168.16;5011451;28;20478;-84
2023/12/02 06:53:18;;;;;;;13.53;6.33;;;;;;;-2.28;90.35;101169.91;5002880;28;20030;-85
2023/12/02 06:55:44;;;;;;;16.83;6.57;;;;;;;-2.26;90.36;101185.28;4993846;28;20053;-84
2023/12/02 06:58:10;;;;;;;14.00;6.57;;;;;;;-2.25;90.32;101190.41;5011122;28;20489;-84
2023/12/02 07:00:35;;;;;;;14.33;6.73;;;;;;;-2.24;89.60;101193.84;5009744;28;20029;-84
2023/12/02 07:03:00;;;;;;;13.13;6.13;;;;;;;-2.23;89.70;101193.03;5011399;28;20125;-84
2023/12/02 07:05:26;;;;;;;15.10;6.43;;;;;;;-2.21;90.53;101199.00;5012745;28;20053;-84
2023/12/02 07:07:51;;;;;;;13.43;6.40;;;;;;;-2.21;90.02;101202.44;5012349;28;20068;-84
2023/12/02 07:10:17;;;;;;;13.47;6.37;;;;;;;-2.20;89.84;101205.84;5011381;28;20030;-84
2023/12/02 07:12:42;;;;;;;14.17;6.63;;;;;;;-2.21;90.08;101205.00;5012344;28;20030;-84
2023/12/02 07:15:08;;;;;;;15.70;7.13;;;;;;;-2.20;89.37;101210.94;5012428;28;20076;-84
2023/12/02 07:17:33;;;;;;;17.17;7.60;;;;;;;-2.21;90.08;101220.28;5011024;28;20109;-84
2023/12/02 07:19:59;;;;;;;15.70;7.40;;;;;;;-2.20;90.25;101221.13;5011468;28;21355;-84
2023/12/02 07:22:25;;;;;;;15.10;6.97;;;;;;;-2.21;89.69;101230.47;5010460;28;20026;-84
2023/12/02 07:24:50;;;;;;;15.97;7.17;;;;;;;-2.20;90.01;101244.06;5011642;28;20042;-84
2023/12/02 07:27:15;;;;;;;16.47;7.30;;;;;;;-2.20;90.49;101239.88;5010986;28;20061;-84
2023/12/02 07:29:41;;;;;;;15.77;7.63;;;;;;;-2.19;89.80;101230.53;5012875;28;20064;-84
2023/12/02 07:32:06;;;;;;;16.87;8.00;;;;;;;-2.18;89.63;101230.59;5011127;28;20025;-84
2023/12/02 07:34:32;;;;;;;15.60;7.33;;;;;;;-2.19;89.79;101233.06;5011698;28;20656;-84
2023/12/02 07:36:57;;;;;;;15.93;7.63;;;;;;;-2.19;89.85;101233.94;5012696;28;20030;-84
2023/12/02 07:39:22;;;;;;;17.53;7.07;;;;;;;-2.19;89.86;101238.16;5011875;28;20058;-84
2023/12/02 07:41:49;;;;;;;14.97;7.00;;;;;;;-2.20;89.97;101236.44;5012300;28;20057;-84
2023/12/02 07:44:14;;;;;;;15.53;7.17;;;;;;;-2.20;89.47;101244.06;4995175;28;20030;-84
2023/12/02 07:46:40;;;;;;;14.33;7.20;;;;;;;-2.20;89.47;101246.63;5012067;28;20088;-84
2023/12/02 07:49:05;;;;;;;14.83;6.67;;;;;;;-2.19;90.17;101253.47;5011506;28;20109;-84
2023/12/02 07:51:30;;;;;;;15.43;7.03;;;;;;;-2.18;89.35;101250.09;4992961;28;20116;-84
2023/12/02 07:53:56;;;;;;;16.57;7.60;;;;;;;-2.15;88.92;101255.31;4995044;28;20033;-83
2023/12/02 07:56:21;;;;;;;15.57;7.30;;;;;;;-2.14;89.36;101247.72;5010227;28;20061;-84
2023/12/02 07:58:46;;;;;;;15.87;7.13;;;;;;;-2.14;89.49;101257.03;5008482;28;20084;-84
2023/12/02 08:01:12;;;;;;;14.97;6.57;;;;;;;-2.16;89.34;101258.66;5010987;28;20062;-84
2023/12/02 08:03:37;;;;;;;14.93;7.07;;;;;;;-2.21;89.48;101253.41;5011307;28;20033;-84
2023/12/02 08:06:03;;;;;;;15.47;7.47;;;;;;;-2.22;89.83;101261.03;5009391;28;20030;-84
2023/12/02 08:08:28;;;;;;;14.43;6.87;;;;;;;-2.23;89.33;101262.69;5011748;28;20036;-84
2023/12/02 08:10:55;;;;;;;15.33;7.40;;;;;;;-2.23;89.73;101270.34;5004894;28;20045;-85
2023/12/02 08:13:21;;;;;;;16.90;7.83;;;;;;;-2.22;89.36;101273.78;5006293;28;20040;-85
2023/12/02 08:15:46;;;;;;;15.37;7.43;;;;;;;-2.18;89.56;101278.13;5009529;28;20112;-85
2023/12/02 08:18:11;;;;;;;18.53;8.07;;;;;;;-2.16;89.20;101268.84;5010378;28;20033;-87
2023/12/02 08:20:37;;;;;;;16.03;7.77;;;;;;;-2.15;89.88;101281.69;5011552;28;20037;-85
2023/12/02 08:23:02;;;;;;;15.63;7.60;;;;;;;-2.11;89.42;101277.53;5013372;28;20026;-85
2023/12/02 08:25:27;;;;;;;16.37;7.50;;;;;;;-2.08;89.23;101282.75;4994741;28;20119;-86
2023/12/02 08:27:53;;;;;;;15.43;7.23;;;;;;;-2.05;89.32;101290.47;5011208;28;20048;-86
2023/12/02 08:30:18;;;;;;;17.80;7.97;;;;;;;-2.02;89.32;101292.28;4994205;28;20030;-85
2023/12/02 08:32:43;;;;;;;17.27;8.10;;;;;;;-2.00;89.44;101290.66;5010223;28;20029;-85
2023/12/02 08:35:09;;;;;;;18.87;8.80;;;;;;;-1.96;89.90;101292.47;5008170;28;20034;-85
2023/12/02 08:37:35;;;;;;;18.60;8.57;;;;;;;-1.94;89.52;101290.81;5010345;28;20029;-86
2023/12/02 08:40:02;;;;;;;17.50;7.77;;;;;;;-1.95;89.33;101289.09;5011303;28;20036;-85
2023/12/02 08:42:27;;;;;;;16.93;7.80;;;;;;;-1.94;89.15;101298.47;5006626;28;20053;-86
2023/12/02 08:44:52;;;;;;;18.47;8.30;;;;;;;-1.94;89.53;101302.72;5012712;28;20127;-86
2023/12/02 08:47:18;;;;;;;16.80;7.47;;;;;;;-1.92;89.36;101303.66;5009427;28;20067;-85
2023/12/02 08:49:43;;;;;;;17.43;7.90;;;;;;;-1.95;88.51;101306.94;5011844;28;20489;-85
2023/12/02 08:52:09;;;;;;;19.57;9.13;;;;;;;-1.95;89.72;101306.09;5010683;28;20076;-86
2023/12/02 08:54:34;;;;;;;17.87;8.57;;;;;;;-1.91;89.84;101310.47;5010918;28;20052;-85
2023/12/02 08:56:59;;;;;;;16.63;7.73;;;;;;;-1.85;90.09;101305.56;5013513;28;20722;-85
2023/12/02 08:59:25;;;;;;;20.97;8.30;;;;;;;-1.79;89.59;101312.56;5013644;28;20040;-84
2023/12/02 09:01:50;;;;;;;17.17;8.13;;;;;;;-1.77;89.33;101311.78;5015336;28;20104;-85
2023/12/02 09:04:16;;;;;;;17.63;8.17;;;;;;;-1.78;89.26;101310.06;5013483;28;20026;-85
2023/12/02 09:06:42;;;;;;;17.90;7.83;;;;;;;-1.80;89.62;101319.34;5014089;28;20025;-85
2023/12/02 09:09:07;;;;;;;19.37;8.00;;;;;;;-1.80;88.96;101313.38;5012057;28;20029;-85
2023/12/02 09:11:33;;;;;;;18.33;8.23;;;;;;;-1.81;89.60;101321.84;5013570;28;20036;-90
2023/12/02 09:13:58;;;;;;;19.60;8.13;;;;;;;-1.81;90.09;101321.84;4995320;28;20029;-88
2023/12/02 09:16:27;;;;;;;17.60;7.70;;;;;;;-1.84;89.93;101318.38;5011871;28;20025;-87
2023/12/02 09:18:52;;;;;;;18.73;8.90;;;;;;;-1.84;90.19;101323.47;5012960;28;20403;-87
2023/12/02 09:21:20;;;;;;;19.03;8.00;;;;;;;-1.84;89.54;101320.03;5012218;28;20029;-87
2023/12/02 09:23:47;;;;;;;19.20;8.40;;;;;;;-1.85;89.54;101321.75;5013628;28;20033;-88
2023/12/02 09:26:28;;;;;;;21.40;9.47;;;;;;;-1.84;89.81;101322.59;4999208;28;20461;-87
2023/12/02 09:28:55;;;;;;;19.42;8.18;;;;;;;-1.87;89.37;101337.78;5011185;28;20041;-88
2023/12/02 09:31:20;;;;;;;20.03;8.30;;;;;;;-1.87;89.93;101332.69;5012522;28;20049;-88
2023/12/02 09:33:49;;;;;;;17.97;8.23;;;;;;;-1.84;90.17;101337.91;5013493;28;20105;-88
2023/12/02 09:36:36;;;;;;;19.67;8.83;;;;;;;-1.78;89.70;101345.78;4997030;28;20022;-89
2023/12/02 09:39:11;;;;;;;20.13;8.57;;;;;;;-1.73;89.71;101344.25;4996135;28;20062;-88
2023/12/02 09:41:49;;;;;;;20.50;8.57;;;;;;;-1.69;89.93;101340.97;5005982;28;20221;-89
2023/12/02 09:44:45;;;;;;;24.30;9.33;;;;;;;-1.64;89.48;101346.22;5003309;28;20025;-90
2023/12/02 09:47:19;;;;;;;23.07;10.17;;;;;;;-1.60;89.21;101337.84;5000462;28;20480;-86
2023/12/02 09:50:04;;;;;;;20.83;9.07;;;;;;;-1.56;89.27;101343.94;5015919;28;20056;-86
2023/12/02 09:52:45;;;;;;;23.00;9.50;;;;;;;-1.51;88.72;101344.91;4997316;28;20022;-86
2023/12/02 09:55:13;;;;;;;;;;;;;;;-1.45;89.65;101341.72;5007645;28;20053;-86
2023/12/02 09:58:15;;;;;;;21.67;9.40;;;;;;;-1.40;89.24;101342.72;5010638;28;19913;-85
2023/12/02 10:01:05;;;;;;;23.70;9.52;;;;;;;-1.31;89.35;101349.78;5010008;28;20034;-87
2023/12/02 10:03:42;;;;;;;22.80;9.53;;;;;;;-1.29;89.17;101353.25;5011340;28;20026;-88
2023/12/02 10:06:31;;;;;;;23.13;10.23;;;;;;;-1.23;89.13;101359.41;5013364;28;20053;-88
2023/12/02 10:09:21;;;;;;;22.57;9.63;;;;;;;-1.16;88.63;101363.03;5014318;28;20037;-87
2023/12/02 10:12:07;;;;;;;22.93;9.40;;;;;;;-1.07;88.71;101365.88;5013304;28;20076;-87
2023/12/02 10:14:39;;;;;;;24.50;10.17;;;;;;;-0.99;87.99;101367.78;4996719;28;20401;-88
2023/12/02 10:17:08;;;;;;;;;;;;;;;-0.90;88.85;101356.97;5010200;28;20446;-86
2023/12/02 10:19:42;;;;;;;19.03;8.20;;;;;;;-0.90;87.83;101362.97;5008020;28;19916;-89
2023/12/02 10:22:10;;;;;;;23.50;10.17;;;;;;;-0.89;88.18;101357.03;5013379;28;20034;-89
2023/12/02 10:24:43;;;;;;;21.77;9.23;;;;;;;-0.87;87.47;101357.97;5011795;28;20481;-90
2023/12/02 10:27:14;;;;;;;18.87;8.70;;;;;;;-0.87;87.83;101352.84;5010026;28;20042;-88
2023/12/02 10:29:50;;;;;;;21.10;9.20;;;;;;;-0.86;87.41;101349.47;5006536;28;20033;-87
2023/12/02 10:32:29;;;;;;;22.17;9.07;;;;;;;-0.89;87.25;101364.69;5008845;28;20025;-88
2023/12/02 10:35:09;;;;;;;23.27;10.03;;;;;;;-0.91;86.91;101371.44;5014153;28;20079;-89
2023/12/02 10:37:41;;;;;;;19.63;8.70;;;;;;;-0.93;86.96;101370.53;5012172;28;20021;-89
2023/12/02 10:40:09;;;;;;;23.77;10.43;;;;;;;-0.92;87.85;101370.56;4999476;28;20080;-88
2023/12/02 10:42:48;;;;;;;21.70;9.77;;;;;;;-0.94;86.61;101366.25;5009054;28;20053;-88
2023/12/02 10:45:15;;;;;;;21.20;9.77;;;;;;;-1.00;86.86;101366.03;5010765;28;20033;-89
2023/12/02 10:47:44;;;;;;;22.43;9.33;;;;;;;-1.01;86.99;101364.31;5013645;28;20034;-87
2023/12/02 10:50:09;;;;;;;23.40;10.33;;;;;;;-0.96;87.52;101367.88;5002139;28;20022;-88
2023/12/02 10:52:36;;;;;;;23.13;9.40;;;;;;;-0.92;86.87;101360.34;5009484;28;20523;-92
2023/12/02 10:55:03;;;;;;;23.43;9.93;;;;;;;-0.86;87.76;101359.69;5013671;28;20048;-90
2023/12/02 10:57:29;;;;;;;22.10;10.17;;;;;;;-0.84;87.49;101355.47;5010971;28;20030;-89
2023/12/02 11:00:16;;;;;;;20.60;9.50;;;;;;;-0.82;87.66;101351.28;5010215;28;20028;-87
2023/12/02 11:02:57;;;;;;;21.63;9.83;;;;;;;-0.83;87.24;101349.53;4994700;28;20107;-90
2023/12/02 11:05:26;;;;;;;20.00;8.77;;;;;;;-0.84;87.81;101350.34;5026293;28;20014;-88
2023/12/02 11:07:59;;;;;;;22.73;10.17;;;;;;;-0.83;88.24;101348.69;5014688;28;20037;-87
2023/12/02 11:10:55;;;;;;;22.60;9.57;;;;;;;-0.81;87.41;101342.78;5026981;28;20374;-87
2023/12/02 11:13:23;;;;;;;19.90;9.07;;;;;;;-0.77;87.99;101349.72;5008646;28;20076;-88
2023/12/02 11:16:26;;;;;;;21.70;9.23;;;;;;;-0.71;87.78;101348.19;4995023;28;20032;-91